Time;durP1;ratioP1;P1;durP2;ratioP2;P2;SDS_P1;SDS_P2;PMS_P1;PMS_P2;Temp;Humidity;BMP_temperature;BMP_pressure;BME280_temperature;BME280_humidity;BME280_pressure;Samples;Min_cycle;Max_cycle;Signal;HPM_P1;HPM_P2
2022/03/01 00:06:47;;;;;;;20.58;10.05;;;2.20;99.90;;;;;;20996180;28;20461;-76
2022/03/01 00:16:48;;;;;;;20.38;9.43;;;2.00;99.90;;;;;;20995826;28;20033;-76
2022/03/01 00:26:49;;;;;;;27.50;9.52;;;1.70;99.90;;;;;;20995142;28;20029;-76
2022/03/01 00:36:50;;;;;;;19.85;9.68;;;1.10;99.90;;;;;;20994374;28;20044;-75
2022/03/01 00:46:51;;;;;;;23.90;9.55;;;0.80;99.90;;;;;;20992932;28;20036;-75
2022/03/01 00:56:52;;;;;;;18.92;8.50;;;1.40;99.90;;;;;;21029587;28;20503;-76
2022/03/01 01:06:52;;;;;;;18.35;9.63;;;1.50;99.90;;;;;;21075886;28;20125;-74
2022/03/01 01:16:53;;;;;;;24.35;9.85;;;1.60;99.90;;;;;;21074460;28;20107;-75
2022/03/01 01:26:54;;;;;;;23.75;9.98;;;1.50;99.90;;;;;;21074629;28;20031;-75
2022/03/01 01:36:55;;;;;;;29.80;10.68;;;1.20;99.90;;;;;;21071380;28;20066;-76
2022/03/01 01:46:56;;;;;;;28.52;8.95;;;1.10;99.90;;;;;;21073608;28;20035;-75
2022/03/01 01:56:57;;;;;;;16.83;7.78;;;1.10;99.90;;;;;;21051330;28;20090;-75
2022/03/01 02:06:58;;;;;;;19.83;8.68;;;0.90;99.90;;;;;;20989359;28;20756;-76
2022/03/01 02:17:01;;;;;;;20.98;8.80;;;0.90;99.90;;;;;;20988815;28;20445;-75
2022/03/01 02:27:04;;;;;;;18.80;8.73;;;0.90;99.90;;;;;;21000899;28;20368;-75
2022/03/01 02:37:05;;;;;;;22.63;9.52;;;0.50;99.90;;;;;;21020534;28;20024;-75
2022/03/01 02:47:06;;;;;;;20.33;9.07;;;0.20;99.90;;;;;;21135969;28;20033;-74
2022/03/01 02:57:07;;;;;;;19.45;9.20;;;-0.10;99.90;;;;;;21144403;28;20111;-75
2022/03/01 03:07:08;;;;;;;22.05;9.75;;;-0.30;99.90;;;;;;21024748;28;20056;-75
2022/03/01 03:17:08;;;;;;;18.48;8.13;;;-0.20;99.90;;;;;;21088279;28;20066;-75
2022/03/01 03:27:09;;;;;;;23.17;9.93;;;-0.40;99.90;;;;;;21158279;28;20076;-75
2022/03/01 03:37:10;;;;;;;22.60;9.30;;;-0.30;99.90;;;;;;21167064;28;20032;-75
2022/03/01 03:47:11;;;;;;;17.23;8.10;;;-0.50;99.90;;;;;;21166917;28;20484;-74
2022/03/01 03:57:12;;;;;;;18.80;7.93;;;-0.70;99.90;;;;;;21148178;28;20031;-75
2022/03/01 04:07:13;;;;;;;21.42;9.27;;;-0.50;99.90;;;;;;21165499;28;20080;-75
2022/03/01 04:17:14;;;;;;;16.48;6.80;;;-0.80;99.90;;;;;;21164744;28;20027;-75
2022/03/01 04:27:15;;;;;;;14.90;6.40;;;-1.20;99.90;;;;;;21152472;28;20107;-74
2022/03/01 04:37:16;;;;;;;17.00;7.18;;;-1.30;99.90;;;;;;21162966;28;20468;-75
2022/03/01 04:47:16;;;;;;;18.20;7.82;;;-1.30;99.90;;;;;;21161931;28;20028;-75
2022/03/01 04:57:17;;;;;;;16.30;6.68;;;-1.10;99.90;;;;;;21161577;28;20542;-74
2022/03/01 05:07:18;;;;;;;18.00;8.30;;;-1.30;99.90;;;;;;21142817;28;20164;-74
2022/03/01 05:17:19;;;;;;;23.38;9.23;;;-1.30;99.90;;;;;;21141790;28;20102;-75
2022/03/01 05:27:20;;;;;;;21.23;9.80;;;-1.30;99.90;;;;;;21159403;28;20095;-75
2022/03/01 05:37:20;;;;;;;26.63;9.10;;;-1.30;99.90;;;;;;21158959;28;20028;-74
2022/03/01 05:47:22;;;;;;;13.00;6.78;;;-1.70;99.90;;;;;;21158532;28;20023;-74
2022/03/01 05:57:28;;;;;;;12.50;6.10;;;-1.50;99.90;;;;;;21129695;28;20028;-75
2022/03/01 06:07:29;;;;;;;15.50;7.82;;;-1.70;99.90;;;;;;21036280;28;20081;-74
2022/03/01 06:17:30;;;;;;;19.20;9.00;;;-1.60;99.90;;;;;;20982255;28;20036;-73
2022/03/01 06:27:31;;;;;;;20.75;9.05;;;-1.60;99.90;;;;;;21016481;28;20025;-74
2022/03/01 06:37:32;;;;;;;18.02;8.80;;;-1.70;99.90;;;;;;21015896;28;20116;-74
2022/03/01 06:47:32;;;;;;;19.67;8.52;;;-1.40;99.90;;;;;;21015527;28;20036;-75
2022/03/01 06:57:33;;;;;;;21.50;7.75;;;-0.90;99.90;;;;;;21015628;28;20534;-75
2022/03/01 07:07:35;;;;;;;16.33;7.75;;;0.10;99.90;;;;;;20993383;28;20032;-75
2022/03/01 07:17:36;;;;;;;15.13;7.68;;;0.90;99.90;;;;;;21001353;28;20116;-75
2022/03/01 07:27:45;;;;;;;17.95;7.47;;;1.40;99.90;;;;;;20982778;28;20506;-75
2022/03/01 07:37:46;;;;;;;19.13;8.63;;;1.70;99.90;;;;;;21000211;28;20036;-76
2022/03/01 07:47:47;;;;;;;21.40;10.63;;;3.20;99.90;;;;;;20997019;28;20036;-76
2022/03/01 07:57:48;;;;;;;;;;;3.60;99.90;;;;;;21022488;28;20073;-75
2022/03/01 08:07:49;;;;;;;18.73;9.15;;;3.70;99.90;;;;;;21037210;28;19912;-75
2022/03/01 08:17:53;;;;;;;25.60;10.02;;;3.60;99.90;;;;;;21023355;28;20531;-75
2022/03/01 08:27:53;;;;;;;22.20;10.75;;;4.20;99.90;;;;;;21037169;28;20028;-75
2022/03/01 08:37:54;;;;;;;22.20;9.90;;;3.80;99.90;;;;;;21031504;28;20548;-75
2022/03/01 08:47:55;;;;;;;18.38;8.73;;;5.00;99.90;;;;;;20994123;28;20045;-76
2022/03/01 08:57:57;;;;;;;17.17;9.37;;;6.10;99.90;;;;;;21030050;28;20107;-76
2022/03/01 09:07:58;;;;;;;16.10;8.82;;;6.70;99.90;;;;;;21000988;28;20032;-76
2022/03/01 09:18:00;;;;;;;19.08;9.30;;;6.70;99.90;;;;;;21056198;28;20177;-76
2022/03/01 09:28:01;;;;;;;20.80;9.88;;;6.10;99.90;;;;;;21041916;28;20502;-77
2022/03/01 09:38:02;;;;;;;17.10;10.50;;;6.10;99.90;;;;;;20992752;28;20024;-77
2022/03/01 09:48:03;;;;;;;21.23;9.73;;;8.10;99.90;;;;;;21000325;28;20064;-77
2022/03/01 09:58:04;;;;;;;15.77;9.35;;;8.50;99.90;;;;;;21050406;28;20081;-76
2022/03/01 10:08:08;;;;;;;18.40;9.70;;;8.80;99.90;;;;;;21010620;28;20130;-77
2022/03/01 10:18:13;;;;;;;52.10;20.30;;;9.70;99.90;;;;;;21030450;28;20035;-76
2022/03/01 10:28:14;;;;;;;14.23;8.82;;;10.00;99.70;;;;;;21009158;28;20131;-77
2022/03/01 10:38:21;;;;;;;15.47;9.23;;;10.10;99.90;;;;;;21051666;28;20169;-77
2022/03/01 10:48:28;;;;;;;19.83;8.45;;;10.30;99.90;;;;;;21046136;28;20032;-77
2022/03/01 10:58:29;;;;;;;15.05;7.95;;;11.30;98.10;;;;;;21066141;28;20044;-77
2022/03/01 11:08:37;;;;;;;17.15;8.43;;;11.20;96.40;;;;;;21064845;28;20067;-77
2022/03/01 11:18:56;;;;;;;11.95;7.53;;;11.60;95.50;;;;;;21064871;28;20028;-77
2022/03/01 11:28:58;;;;;;;21.70;13.05;;;11.60;96.40;;;;;;21063087;28;20036;-77
2022/03/01 11:39:11;;;;;;;11.95;7.13;;;11.80;95.60;;;;;;21057159;28;20047;-77
2022/03/01 11:49:14;;;;;;;13.25;7.25;;;11.20;97.30;;;;;;21018911;28;20062;-77
2022/03/01 11:59:15;;;;;;;11.65;6.72;;;11.80;93.90;;;;;;21035707;28;20438;-76
2022/03/01 12:09:16;;;;;;;17.73;8.20;;;11.50;96.50;;;;;;21023065;28;20105;-77
2022/03/01 12:19:20;;;;;;;14.17;7.47;;;13.30;93.50;;;;;;20979278;28;20020;-76
2022/03/01 12:29:23;;;;;;;13.23;7.28;;;14.00;93.10;;;;;;21034131;28;20444;-79
2022/03/01 12:39:27;;;;;;;16.23;8.30;;;14.30;92.60;;;;;;21038984;28;20032;-77
2022/03/01 12:49:29;;;;;;;12.85;7.03;;;13.60;93.40;;;;;;21039532;28;20123;-77
2022/03/01 12:59:32;;;;;;;15.23;7.28;;;13.30;92.70;;;;;;21057507;28;20044;-78
2022/03/01 13:09:34;;;;;;;11.57;6.78;;;11.70;93.90;;;;;;21076865;28;20467;-76
2022/03/01 13:19:35;;;;;;;;;;;12.10;93.10;;;;;;21054608;28;20039;-76
2022/03/01 13:29:38;;;;;;;10.55;6.07;;;13.10;91.90;;;;;;21054546;28;20022;-75
2022/03/01 13:39:41;;;;;;;11.90;6.47;;;13.40;90.80;;;;;;21047568;28;20064;-76
2022/03/01 13:49:53;;;;;;;8.95;5.60;;;13.60;89.50;;;;;;21046701;28;20536;-76
2022/03/01 13:59:55;;;;;;;9.63;6.05;;;12.80;87.50;;;;;;21022279;28;20044;-76
2022/03/01 14:09:56;;;;;;;;;;;12.80;83.80;;;;;;21032619;28;20033;-76
2022/03/01 14:19:57;;;;;;;10.90;6.40;;;12.10;90.20;;;;;;21022086;28;19983;-76
2022/03/01 14:29:58;;;;;;;12.32;5.72;;;13.60;85.00;;;;;;21011815;28;20036;-76
2022/03/01 14:39:59;;;;;;;9.67;6.43;;;14.80;85.80;;;;;;21003520;28;20041;-74
2022/03/01 14:50:01;;;;;;;10.93;6.27;;;14.60;82.20;;;;;;21006396;28;20158;-76
2022/03/01 15:00:04;;;;;;;13.47;7.27;;;14.30;83.30;;;;;;21005480;28;20039;-76
2022/03/01 15:10:05;;;;;;;13.15;7.50;;;12.50;88.50;;;;;;21039273;28;20040;-76
2022/03/01 15:20:07;;;;;;;12.80;7.33;;;12.60;86.90;;;;;;21020793;28;20047;-77
2022/03/01 15:30:11;;;;;;;13.73;6.75;;;13.60;86.60;;;;;;21030201;28;20063;-77
2022/03/01 15:40:13;;;;;;;12.35;6.82;;;13.90;85.10;;;;;;21026015;28;20424;-76
2022/03/01 15:50:15;;;;;;;12.65;6.97;;;14.20;83.30;;;;;;21018868;28;20047;-73
2022/03/01 16:00:18;;;;;;;14.77;7.40;;;12.50;87.10;;;;;;20989322;28;20110;-76
2022/03/01 16:10:21;;;;;;;14.48;7.70;;;11.80;89.10;;;;;;21051368;28;20060;-76
2022/03/01 16:20:23;;;;;;;13.10;7.55;;;10.60;91.30;;;;;;21017502;28;20122;-78
2022/03/01 16:30:24;;;;;;;27.63;8.13;;;10.00;92.50;;;;;;21019049;28;20092;-78
2022/03/01 16:40:26;;;;;;;18.87;9.27;;;9.60;92.90;;;;;;21038591;28;20440;-78
2022/03/01 16:50:26;;;;;;;;;;;9.20;94.10;;;;;;21057446;28;20117;-78
2022/03/01 17:00:32;;;;;;;14.10;7.38;;;8.80;94.70;;;;;;21005300;28;19920;-75
2022/03/01 17:10:33;;;;;;;15.75;7.50;;;8.60;97.40;;;;;;21017927;28;20081;-75
2022/03/01 17:20:34;;;;;;;14.20;7.40;;;9.10;97.60;;;;;;21015138;28;20037;-75
2022/03/01 17:30:36;;;;;;;15.17;7.00;;;9.70;97.60;;;;;;21011327;28;20036;-76
2022/03/01 17:40:37;;;;;;;14.63;8.13;;;10.10;97.90;;;;;;20993864;28;20032;-78
2022/03/01 17:50:38;;;;;;;12.17;6.07;;;8.50;99.40;;;;;;21012844;28;20394;-78
2022/03/01 18:00:39;;;;;;;13.93;8.00;;;6.30;99.90;;;;;;20984301;28;20506;-78
2022/03/01 18:10:41;;;;;;;15.93;6.97;;;6.70;99.90;;;;;;21062227;28;20029;-78
2022/03/01 18:20:42;;;;;;;13.82;7.57;;;5.90;99.90;;;;;;21023788;28;20107;-78
2022/03/01 18:30:43;;;;;;;16.93;7.43;;;5.80;99.90;;;;;;21005629;28;20032;-78
2022/03/01 18:40:44;;;;;;;15.60;7.53;;;5.20;99.90;;;;;;21012133;28;20036;-77
2022/03/01 18:50:45;;;;;;;;;;;4.90;99.90;;;;;;21006498;28;20050;-77
2022/03/01 19:00:46;;;;;;;18.15;7.80;;;4.80;99.90;;;;;;21007197;28;19973;-79
2022/03/01 19:10:47;;;;;;;13.88;6.90;;;4.50;99.90;;;;;;20990131;28;20036;-78
2022/03/01 19:20:48;;;;;;;28.85;7.55;;;4.10;99.90;;;;;;21045303;28;20154;-78
2022/03/01 19:30:49;;;;;;;;;;;3.90;99.90;;;;;;21048140;28;20024;-79
2022/03/01 19:40:51;;;;;;;17.02;8.10;;;3.60;99.90;;;;;;21014921;28;19916;-79
2022/03/01 19:50:51;;;;;;;14.43;6.90;;;3.50;99.90;;;;;;21014869;28;20102;-78
2022/03/01 20:00:52;;;;;;;;;;;3.60;99.90;;;;;;21020944;28;20131;-78
2022/03/01 20:10:53;;;;;;;18.98;6.28;;;3.30;99.90;;;;;;20998447;28;19923;-77
2022/03/01 20:20:54;;;;;;;;;;;3.30;99.90;;;;;;21015336;28;20032;-79
2022/03/01 20:30:55;;;;;;;16.43;7.30;;;3.00;99.90;;;;;;21026549;28;20528;-78
2022/03/01 20:40:58;;;;;;;17.77;7.93;;;3.60;99.90;;;;;;21014635;28;20282;-78
2022/03/01 20:50:59;;;;;;;16.40;6.82;;;3.50;99.90;;;;;;20999239;28;20028;-78
2022/03/01 21:01:00;;;;;;;;;;;3.50;99.90;;;;;;20973969;28;20032;-78
2022/03/01 21:11:01;;;;;;;14.85;6.93;;;3.30;99.90;;;;;;20995321;28;19927;-78
2022/03/01 21:21:03;;;;;;;;;;;3.20;99.90;;;;;;21056554;28;20406;-78
2022/03/01 21:31:05;;;;;;;19.55;7.93;;;3.10;99.90;;;;;;21036356;28;19915;-78
2022/03/01 21:41:06;;;;;;;13.80;7.00;;;3.00;99.90;;;;;;21055548;28;20032;-77
2022/03/01 21:51:07;;;;;;;16.23;6.57;;;2.90;99.90;;;;;;20971958;28;20507;-78
2022/03/01 22:01:08;;;;;;;;;;;2.70;99.90;;;;;;20996953;28;20054;-77
2022/03/01 22:11:09;;;;;;;15.95;6.95;;;2.60;99.90;;;;;;21002156;28;19916;-78
2022/03/01 22:21:09;;;;;;;16.88;6.63;;;2.20;99.90;;;;;;20989410;28;20032;-78
2022/03/01 22:31:10;;;;;;;17.23;7.38;;;1.70;99.90;;;;;;20970742;28;20032;-77
2022/03/01 22:41:11;;;;;;;17.20;7.20;;;0.60;99.90;;;;;;20958025;28;20788;-76
2022/03/01 22:51:12;;;;;;;15.60;7.47;;;0.40;99.90;;;;;;20985758;28;20036;-78
2022/03/01 23:01:24;;;;;;;22.27;6.80;;;0.10;99.90;;;;;;20983375;28;20653;-77
2022/03/01 23:11:26;;;;;;;18.65;7.63;;;0.30;99.90;;;;;;20990812;28;20059;-78
2022/03/01 23:21:29;;;;;;;18.40;7.25;;;0.80;99.90;;;;;;21065973;28;20118;-76
2022/03/01 23:31:33;;;;;;;23.05;7.65;;;1.30;99.90;;;;;;21066254;28;20110;-77
2022/03/01 23:41:35;;;;;;;20.98;8.88;;;1.40;99.90;;;;;;21038413;28;20078;-77
2022/03/01 23:51:36;;;;;;;21.75;9.90;;;1.30;99.90;;;;;;21084969;28;20059;-77
